Aviation Digital Data Service (ADDS)

Output produced by METARs form (1742 UTC 25 February 2018)
found at http://aviationweather.gov/adds/metars/
 
KHUM 251516Z 2515/2612 18005KT 5SM BR FEW008 SCT019 BKN090 
     TEMPO 2515/2517 VRB15G25KT 2SM SHRA SCT008 OVC019 
     FM251700 05006KT P6SM VCSH SCT025 
     FM260000 18006KT P6SM VCSH OVC025 
     FM260600 15007KT P6SM VCTS BKN015CB